Elizabeth, New Jersey
Current Conditions -  °F | °C
As of 8:51 PM on Friday 19 Dec 2014 (Local Time) from KEWR Reporting Station
Broken Clouds Broken Clouds  
Wind Chill: -5°   Ceiling: 3000
Heat Index:   Visibility: 10mi
Dew Point: -6°   Wind: 10mph
Humidity: 64%   Direction: 320°NW
Pressure: 30.16"   Gusts: NA
Location:  40.66°N, 74.21°W
Report Text: KEWR 200151Z 32009KT 310V010 10SM BKN030 00/M06 A3016 RMK AO2 SLP211 T00001061
Loading
Personal Weather Stations






























Interactive Weather Map New forecast layout! Learn more

10-Day Weather Forecast

Advertisements
Track Severe Weather on mobile